Hawi, Hawaii
Current Conditions -  °F | °C
As of 2:56 AM on Thursday 30 Oct 2014 (Local Time) from PHSF Reporting Station
Clear Clear  
Wind Chill: 50°   Ceiling: Unl
Heat Index: 50°   Visibility: 10mi
Dew Point: 49°   Wind: 7mph
Humidity: 95%   Direction: 120°ESE
Pressure: 30.37"   Gusts: NA
Location:  20.24°N, 155.82°W
Report Text: PHSF 301256Z AUTO 12006KT 10SM CLR 10/09 A3037 RMK AO2 SLP176 T01010093 $
Loading
Personal Weather Stations






























Interactive Weather Map New forecast layout! Learn more

10-Day Weather Forecast

Advertisements
Track Severe Weather on mobile